sensor_id;sensor_type;location;lat;lon;timestamp;P1;durP1;ratioP1;P2;durP2;ratioP2
14770;SDS011;7477;45.222;5.688;2023-05-18T00:00:26;3.42;;;1.92;;
14770;SDS011;7477;45.222;5.688;2023-05-18T00:03:45;5.40;;;1.80;;
14770;SDS011;7477;45.222;5.688;2023-05-18T00:07:04;2.35;;;1.65;;
14770;SDS011;7477;45.222;5.688;2023-05-18T00:10:24;2.90;;;1.67;;
14770;SDS011;7477;45.222;5.688;2023-05-18T00:13:43;2.30;;;1.63;;
14770;SDS011;7477;45.222;5.688;2023-05-18T00:17:02;4.28;;;2.33;;
14770;SDS011;7477;45.222;5.688;2023-05-18T00:20:21;4.13;;;1.60;;
14770;SDS011;7477;45.222;5.688;2023-05-18T00:23:44;4.10;;;1.85;;
14770;SDS011;7477;45.222;5.688;2023-05-18T00:27:07;3.63;;;1.80;;
14770;SDS011;7477;45.222;5.688;2023-05-18T00:30:26;2.53;;;1.70;;
14770;SDS011;7477;45.222;5.688;2023-05-18T00:33:45;3.58;;;1.67;;
14770;SDS011;7477;45.222;5.688;2023-05-18T00:37:04;2.50;;;1.65;;
14770;SDS011;7477;45.222;5.688;2023-05-18T00:40:24;3.97;;;2.13;;
14770;SDS011;7477;45.222;5.688;2023-05-18T00:43:45;7.55;;;2.15;;
14770;SDS011;7477;45.222;5.688;2023-05-18T00:47:05;4.05;;;2.22;;
14770;SDS011;7477;45.222;5.688;2023-05-18T00:50:24;4.15;;;1.70;;
14770;SDS011;7477;45.222;5.688;2023-05-18T00:53:44;4.68;;;2.20;;
14770;SDS011;7477;45.222;5.688;2023-05-18T00:57:04;2.75;;;2.00;;
14770;SDS011;7477;45.222;5.688;2023-05-18T01:00:24;3.63;;;2.17;;
14770;SDS011;7477;45.222;5.688;2023-05-18T01:03:43;4.88;;;2.08;;
14770;SDS011;7477;45.222;5.688;2023-05-18T01:07:03;4.38;;;2.08;;
14770;SDS011;7477;45.222;5.688;2023-05-18T01:10:24;1.95;;;1.60;;
14770;SDS011;7477;45.222;5.688;2023-05-18T01:17:46;2.83;;;1.83;;
14770;SDS011;7477;45.222;5.688;2023-05-18T01:21:27;3.95;;;1.90;;
14770;SDS011;7477;45.222;5.688;2023-05-18T01:24:51;3.30;;;2.22;;
14770;SDS011;7477;45.222;5.688;2023-05-18T01:28:28;2.30;;;2.10;;
14770;SDS011;7477;45.222;5.688;2023-05-18T01:31:50;4.45;;;1.70;;
14770;SDS011;7477;45.222;5.688;2023-05-18T01:35:09;4.60;;;2.20;;
14770;SDS011;7477;45.222;5.688;2023-05-18T01:38:29;4.63;;;1.90;;
14770;SDS011;7477;45.222;5.688;2023-05-18T01:41:53;3.22;;;1.80;;
14770;SDS011;7477;45.222;5.688;2023-05-18T01:45:20;2.13;;;1.80;;
14770;SDS011;7477;45.222;5.688;2023-05-18T01:48:43;3.83;;;2.03;;
14770;SDS011;7477;45.222;5.688;2023-05-18T01:52:10;4.70;;;2.05;;
14770;SDS011;7477;45.222;5.688;2023-05-18T01:55:38;2.70;;;1.75;;
14770;SDS011;7477;45.222;5.688;2023-05-18T01:58:59;2.53;;;1.83;;
14770;SDS011;7477;45.222;5.688;2023-05-18T02:02:19;2.60;;;1.50;;
14770;SDS011;7477;45.222;5.688;2023-05-18T02:05:38;4.70;;;1.63;;
14770;SDS011;7477;45.222;5.688;2023-05-18T02:08:58;2.80;;;1.70;;
14770;SDS011;7477;45.222;5.688;2023-05-18T02:12:17;2.40;;;1.52;;
14770;SDS011;7477;45.222;5.688;2023-05-18T02:15:36;3.53;;;1.90;;
14770;SDS011;7477;45.222;5.688;2023-05-18T02:18:55;6.13;;;1.92;;
14770;SDS011;7477;45.222;5.688;2023-05-18T02:22:14;3.25;;;2.22;;
14770;SDS011;7477;45.222;5.688;2023-05-18T02:25:34;2.70;;;1.90;;
14770;SDS011;7477;45.222;5.688;2023-05-18T02:28:54;3.30;;;1.92;;
14770;SDS011;7477;45.222;5.688;2023-05-18T02:32:13;4.05;;;2.10;;
14770;SDS011;7477;45.222;5.688;2023-05-18T02:35:36;4.75;;;1.85;;
14770;SDS011;7477;45.222;5.688;2023-05-18T02:38:55;2.33;;;1.75;;
14770;SDS011;7477;45.222;5.688;2023-05-18T02:42:14;3.08;;;2.10;;
14770;SDS011;7477;45.222;5.688;2023-05-18T02:45:34;4.93;;;2.05;;
14770;SDS011;7477;45.222;5.688;2023-05-18T02:48:53;3.65;;;2.20;;
14770;SDS011;7477;45.222;5.688;2023-05-18T02:52:13;4.75;;;3.22;;
14770;SDS011;7477;45.222;5.688;2023-05-18T02:55:32;20.35;;;9.98;;
14770;SDS011;7477;45.222;5.688;2023-05-18T02:58:51;23.92;;;10.05;;
14770;SDS011;7477;45.222;5.688;2023-05-18T03:02:16;18.63;;;9.57;;
14770;SDS011;7477;45.222;5.688;2023-05-18T03:05:35;16.48;;;8.73;;
14770;SDS011;7477;45.222;5.688;2023-05-18T03:08:55;11.63;;;7.05;;
14770;SDS011;7477;45.222;5.688;2023-05-18T03:12:14;9.57;;;5.20;;
14770;SDS011;7477;45.222;5.688;2023-05-18T03:15:34;7.68;;;3.97;;
14770;SDS011;7477;45.222;5.688;2023-05-18T03:18:55;2.92;;;2.25;;
14770;SDS011;7477;45.222;5.688;2023-05-18T03:22:16;4.68;;;2.00;;
14770;SDS011;7477;45.222;5.688;2023-05-18T03:25:35;4.10;;;2.40;;
14770;SDS011;7477;45.222;5.688;2023-05-18T03:28:58;2.47;;;1.60;;
14770;SDS011;7477;45.222;5.688;2023-05-18T03:32:19;3.13;;;1.77;;
14770;SDS011;7477;45.222;5.688;2023-05-18T03:35:38;2.60;;;1.80;;
14770;SDS011;7477;45.222;5.688;2023-05-18T03:38:58;4.45;;;1.77;;
14770;SDS011;7477;45.222;5.688;2023-05-18T03:42:17;3.72;;;1.63;;
14770;SDS011;7477;45.222;5.688;2023-05-18T03:45:36;2.22;;;1.95;;
14770;SDS011;7477;45.222;5.688;2023-05-18T03:48:55;6.95;;;1.85;;
14770;SDS011;7477;45.222;5.688;2023-05-18T03:52:15;2.75;;;1.70;;
14770;SDS011;7477;45.222;5.688;2023-05-18T03:55:40;5.28;;;2.03;;
14770;SDS011;7477;45.222;5.688;2023-05-18T03:58:59;2.92;;;2.05;;
14770;SDS011;7477;45.222;5.688;2023-05-18T04:02:18;2.33;;;1.92;;
14770;SDS011;7477;45.222;5.688;2023-05-18T04:05:38;3.05;;;1.83;;
14770;SDS011;7477;45.222;5.688;2023-05-18T04:09:01;2.42;;;1.73;;
14770;SDS011;7477;45.222;5.688;2023-05-18T04:12:22;3.28;;;2.10;;
14770;SDS011;7477;45.222;5.688;2023-05-18T04:15:42;3.08;;;1.70;;
14770;SDS011;7477;45.222;5.688;2023-05-18T04:19:01;3.30;;;1.70;;
14770;SDS011;7477;45.222;5.688;2023-05-18T04:22:21;3.65;;;1.65;;
14770;SDS011;7477;45.222;5.688;2023-05-18T04:25:40;2.95;;;1.88;;
14770;SDS011;7477;45.222;5.688;2023-05-18T04:29:01;4.03;;;1.70;;
14770;SDS011;7477;45.222;5.688;2023-05-18T04:32:21;7.70;;;2.42;;
14770;SDS011;7477;45.222;5.688;2023-05-18T04:35:44;5.30;;;2.25;;
14770;SDS011;7477;45.222;5.688;2023-05-18T04:39:04;16.08;;;9.25;;
14770;SDS011;7477;45.222;5.688;2023-05-18T04:42:25;21.45;;;14.50;;
14770;SDS011;7477;45.222;5.688;2023-05-18T04:45:45;12.75;;;7.85;;
14770;SDS011;7477;45.222;5.688;2023-05-18T04:49:04;5.15;;;3.58;;
14770;SDS011;7477;45.222;5.688;2023-05-18T04:52:24;3.72;;;2.75;;
14770;SDS011;7477;45.222;5.688;2023-05-18T04:55:43;4.35;;;2.40;;
14770;SDS011;7477;45.222;5.688;2023-05-18T04:59:04;4.40;;;2.40;;
14770;SDS011;7477;45.222;5.688;2023-05-18T05:02:23;5.43;;;2.72;;
14770;SDS011;7477;45.222;5.688;2023-05-18T05:05:42;4.47;;;3.10;;
14770;SDS011;7477;45.222;5.688;2023-05-18T05:09:02;4.30;;;3.45;;
14770;SDS011;7477;45.222;5.688;2023-05-18T05:12:22;6.40;;;3.00;;
14770;SDS011;7477;45.222;5.688;2023-05-18T05:15:41;7.88;;;3.65;;
14770;SDS011;7477;45.222;5.688;2023-05-18T05:19:00;9.48;;;6.07;;
14770;SDS011;7477;45.222;5.688;2023-05-18T05:22:19;7.78;;;5.07;;
14770;SDS011;7477;45.222;5.688;2023-05-18T05:25:38;10.35;;;6.15;;
14770;SDS011;7477;45.222;5.688;2023-05-18T05:28:58;4.50;;;3.80;;
14770;SDS011;7477;45.222;5.688;2023-05-18T05:32:17;5.70;;;3.10;;
14770;SDS011;7477;45.222;5.688;2023-05-18T05:35:36;6.47;;;3.65;;
14770;SDS011;7477;45.222;5.688;2023-05-18T05:38:55;4.40;;;2.75;;
14770;SDS011;7477;45.222;5.688;2023-05-18T05:42:14;5.95;;;3.33;;
14770;SDS011;7477;45.222;5.688;2023-05-18T05:45:34;5.70;;;3.10;;
14770;SDS011;7477;45.222;5.688;2023-05-18T05:48:53;5.82;;;3.72;;
14770;SDS011;7477;45.222;5.688;2023-05-18T05:52:13;7.97;;;3.25;;
14770;SDS011;7477;45.222;5.688;2023-05-18T05:55:32;7.93;;;3.63;;
14770;SDS011;7477;45.222;5.688;2023-05-18T05:58:54;6.78;;;3.28;;
14770;SDS011;7477;45.222;5.688;2023-05-18T06:02:13;5.32;;;3.40;;
14770;SDS011;7477;45.222;5.688;2023-05-18T06:05:32;4.97;;;3.38;;
14770;SDS011;7477;45.222;5.688;2023-05-18T06:08:52;4.28;;;3.13;;
14770;SDS011;7477;45.222;5.688;2023-05-18T06:12:11;5.78;;;3.67;;
14770;SDS011;7477;45.222;5.688;2023-05-18T06:15:30;5.85;;;3.50;;
14770;SDS011;7477;45.222;5.688;2023-05-18T06:18:50;7.35;;;3.75;;
14770;SDS011;7477;45.222;5.688;2023-05-18T06:22:09;8.40;;;3.88;;
14770;SDS011;7477;45.222;5.688;2023-05-18T06:25:29;7.22;;;3.85;;
14770;SDS011;7477;45.222;5.688;2023-05-18T06:28:48;8.43;;;3.83;;
14770;SDS011;7477;45.222;5.688;2023-05-18T06:32:08;4.90;;;3.20;;
14770;SDS011;7477;45.222;5.688;2023-05-18T06:35:27;5.63;;;3.33;;
14770;SDS011;7477;45.222;5.688;2023-05-18T06:38:46;6.05;;;3.47;;
14770;SDS011;7477;45.222;5.688;2023-05-18T06:42:06;4.78;;;3.38;;
14770;SDS011;7477;45.222;5.688;2023-05-18T06:45:25;6.75;;;3.97;;
14770;SDS011;7477;45.222;5.688;2023-05-18T06:48:44;5.40;;;3.97;;
14770;SDS011;7477;45.222;5.688;2023-05-18T06:52:04;8.07;;;3.72;;
14770;SDS011;7477;45.222;5.688;2023-05-18T06:55:25;5.45;;;3.80;;
14770;SDS011;7477;45.222;5.688;2023-05-18T06:58:45;6.53;;;4.00;;
14770;SDS011;7477;45.222;5.688;2023-05-18T07:02:04;8.20;;;4.07;;
14770;SDS011;7477;45.222;5.688;2023-05-18T07:05:24;6.13;;;3.72;;
14770;SDS011;7477;45.222;5.688;2023-05-18T07:08:44;6.75;;;3.85;;
14770;SDS011;7477;45.222;5.688;2023-05-18T07:12:05;5.85;;;3.70;;
14770;SDS011;7477;45.222;5.688;2023-05-18T07:15:24;4.78;;;3.53;;
14770;SDS011;7477;45.222;5.688;2023-05-18T07:18:44;9.23;;;4.20;;
14770;SDS011;7477;45.222;5.688;2023-05-18T07:22:03;7.00;;;4.05;;
14770;SDS011;7477;45.222;5.688;2023-05-18T07:25:22;6.07;;;4.05;;
14770;SDS011;7477;45.222;5.688;2023-05-18T07:28:42;5.57;;;3.70;;
14770;SDS011;7477;45.222;5.688;2023-05-18T07:32:02;10.10;;;4.30;;
14770;SDS011;7477;45.222;5.688;2023-05-18T07:35:21;5.32;;;4.28;;
14770;SDS011;7477;45.222;5.688;2023-05-18T07:38:41;5.22;;;3.40;;
14770;SDS011;7477;45.222;5.688;2023-05-18T07:42:01;9.27;;;3.60;;
14770;SDS011;7477;45.222;5.688;2023-05-18T07:45:20;8.48;;;4.30;;
14770;SDS011;7477;45.222;5.688;2023-05-18T07:48:41;7.15;;;3.88;;
14770;SDS011;7477;45.222;5.688;2023-05-18T07:52:00;6.68;;;4.10;;
14770;SDS011;7477;45.222;5.688;2023-05-18T07:55:20;5.90;;;3.63;;
14770;SDS011;7477;45.222;5.688;2023-05-18T07:58:39;5.53;;;3.63;;
14770;SDS011;7477;45.222;5.688;2023-05-18T08:01:58;6.75;;;3.97;;
14770;SDS011;7477;45.222;5.688;2023-05-18T08:05:19;6.68;;;3.67;;
14770;SDS011;7477;45.222;5.688;2023-05-18T08:08:40;4.60;;;3.42;;
14770;SDS011;7477;45.222;5.688;2023-05-18T08:11:59;11.85;;;3.97;;
14770;SDS011;7477;45.222;5.688;2023-05-18T08:15:19;5.78;;;4.05;;
14770;SDS011;7477;45.222;5.688;2023-05-18T08:18:38;5.43;;;3.70;;
14770;SDS011;7477;45.222;5.688;2023-05-18T08:21:58;8.30;;;4.05;;
14770;SDS011;7477;45.222;5.688;2023-05-18T08:25:17;6.40;;;4.22;;
14770;SDS011;7477;45.222;5.688;2023-05-18T08:28:37;5.10;;;4.22;;
14770;SDS011;7477;45.222;5.688;2023-05-18T08:31:56;7.35;;;4.10;;
14770;SDS011;7477;45.222;5.688;2023-05-18T08:35:15;6.55;;;4.07;;
14770;SDS011;7477;45.222;5.688;2023-05-18T08:38:35;9.00;;;4.35;;
14770;SDS011;7477;45.222;5.688;2023-05-18T08:42:02;7.72;;;4.00;;
14770;SDS011;7477;45.222;5.688;2023-05-18T08:49:06;5.95;;;4.10;;
14770;SDS011;7477;45.222;5.688;2023-05-18T08:52:28;9.05;;;4.53;;
14770;SDS011;7477;45.222;5.688;2023-05-18T08:55:53;6.40;;;4.13;;
14770;SDS011;7477;45.222;5.688;2023-05-18T08:59:13;9.52;;;4.80;;
14770;SDS011;7477;45.222;5.688;2023-05-18T09:02:36;8.38;;;5.25;;
14770;SDS011;7477;45.222;5.688;2023-05-18T09:05:57;11.00;;;4.65;;
14770;SDS011;7477;45.222;5.688;2023-05-18T09:09:18;9.57;;;5.65;;
14770;SDS011;7477;45.222;5.688;2023-05-18T09:12:40;7.00;;;5.35;;
14770;SDS011;7477;45.222;5.688;2023-05-18T09:16:01;8.95;;;4.97;;
14770;SDS011;7477;45.222;5.688;2023-05-18T09:19:21;6.20;;;4.22;;
14770;SDS011;7477;45.222;5.688;2023-05-18T09:22:42;11.45;;;4.50;;
14770;SDS011;7477;45.222;5.688;2023-05-18T09:26:02;10.35;;;4.70;;
14770;SDS011;7477;45.222;5.688;2023-05-18T09:29:22;10.13;;;4.68;;
14770;SDS011;7477;45.222;5.688;2023-05-18T09:32:42;7.28;;;4.50;;
14770;SDS011;7477;45.222;5.688;2023-05-18T09:36:05;8.93;;;4.82;;
14770;SDS011;7477;45.222;5.688;2023-05-18T09:39:27;6.75;;;5.13;;
14770;SDS011;7477;45.222;5.688;2023-05-18T09:42:47;12.80;;;6.15;;
14770;SDS011;7477;45.222;5.688;2023-05-18T09:46:07;6.97;;;5.15;;
14770;SDS011;7477;45.222;5.688;2023-05-18T09:49:28;13.10;;;6.60;;
14770;SDS011;7477;45.222;5.688;2023-05-18T09:52:48;5.95;;;4.30;;
14770;SDS011;7477;45.222;5.688;2023-05-18T09:56:08;8.45;;;4.90;;
14770;SDS011;7477;45.222;5.688;2023-05-18T09:59:29;8.82;;;5.72;;
14770;SDS011;7477;45.222;5.688;2023-05-18T10:02:49;7.13;;;4.90;;
14770;SDS011;7477;45.222;5.688;2023-05-18T10:06:10;9.30;;;5.60;;
14770;SDS011;7477;45.222;5.688;2023-05-18T10:09:32;8.40;;;5.85;;
14770;SDS011;7477;45.222;5.688;2023-05-18T10:12:52;6.95;;;4.47;;
14770;SDS011;7477;45.222;5.688;2023-05-18T10:16:13;11.77;;;7.40;;
14770;SDS011;7477;45.222;5.688;2023-05-18T10:19:33;10.32;;;4.93;;
14770;SDS011;7477;45.222;5.688;2023-05-18T10:22:54;7.47;;;5.25;;
14770;SDS011;7477;45.222;5.688;2023-05-18T10:26:15;9.30;;;5.60;;
14770;SDS011;7477;45.222;5.688;2023-05-18T10:29:40;5.95;;;4.43;;
14770;SDS011;7477;45.222;5.688;2023-05-18T10:33:01;6.60;;;4.93;;
14770;SDS011;7477;45.222;5.688;2023-05-18T10:36:21;7.07;;;4.75;;
14770;SDS011;7477;45.222;5.688;2023-05-18T10:39:43;6.93;;;3.92;;
14770;SDS011;7477;45.222;5.688;2023-05-18T10:43:04;7.72;;;4.30;;
14770;SDS011;7477;45.222;5.688;2023-05-18T10:46:24;9.02;;;4.28;;
14770;SDS011;7477;45.222;5.688;2023-05-18T10:49:46;7.50;;;4.20;;
14770;SDS011;7477;45.222;5.688;2023-05-18T10:53:06;5.97;;;4.50;;
14770;SDS011;7477;45.222;5.688;2023-05-18T10:56:27;7.85;;;4.03;;
14770;SDS011;7477;45.222;5.688;2023-05-18T10:59:46;6.78;;;4.45;;
14770;SDS011;7477;45.222;5.688;2023-05-18T11:03:07;6.22;;;4.00;;
14770;SDS011;7477;45.222;5.688;2023-05-18T11:06:32;7.43;;;3.75;;
14770;SDS011;7477;45.222;5.688;2023-05-18T11:09:52;5.78;;;3.58;;
14770;SDS011;7477;45.222;5.688;2023-05-18T11:13:12;4.80;;;3.50;;
14770;SDS011;7477;45.222;5.688;2023-05-18T11:16:33;6.53;;;3.78;;
14770;SDS011;7477;45.222;5.688;2023-05-18T11:23:28;7.70;;;5.15;;
14770;SDS011;7477;45.222;5.688;2023-05-18T11:26:52;7.95;;;4.45;;
14770;SDS011;7477;45.222;5.688;2023-05-18T11:30:25;7.72;;;5.10;;
14770;SDS011;7477;45.222;5.688;2023-05-18T11:34:24;8.38;;;5.78;;
14770;SDS011;7477;45.222;5.688;2023-05-18T11:38:06;8.88;;;4.97;;
14770;SDS011;7477;45.222;5.688;2023-05-18T11:44:57;7.85;;;5.35;;
14770;SDS011;7477;45.222;5.688;2023-05-18T11:48:25;9.43;;;5.43;;
14770;SDS011;7477;45.222;5.688;2023-05-18T11:55:16;9.45;;;6.05;;
14770;SDS011;7477;45.222;5.688;2023-05-18T11:58:37;9.40;;;6.10;;
14770;SDS011;7477;45.222;5.688;2023-05-18T12:01:57;7.57;;;6.00;;
14770;SDS011;7477;45.222;5.688;2023-05-18T12:05:19;7.50;;;5.10;;
14770;SDS011;7477;45.222;5.688;2023-05-18T12:08:39;8.27;;;5.65;;
14770;SDS011;7477;45.222;5.688;2023-05-18T12:12:01;8.38;;;6.28;;
14770;SDS011;7477;45.222;5.688;2023-05-18T12:15:21;8.60;;;6.20;;
14770;SDS011;7477;45.222;5.688;2023-05-18T12:18:47;9.13;;;6.30;;
14770;SDS011;7477;45.222;5.688;2023-05-18T12:22:07;12.23;;;6.00;;
14770;SDS011;7477;45.222;5.688;2023-05-18T12:25:26;9.85;;;5.95;;
14770;SDS011;7477;45.222;5.688;2023-05-18T12:28:45;7.88;;;5.43;;
14770;SDS011;7477;45.222;5.688;2023-05-18T12:32:05;10.20;;;6.15;;
14770;SDS011;7477;45.222;5.688;2023-05-18T12:35:29;9.15;;;5.95;;
14770;SDS011;7477;45.222;5.688;2023-05-18T12:38:51;8.00;;;5.72;;
14770;SDS011;7477;45.222;5.688;2023-05-18T12:42:11;8.00;;;6.00;;
14770;SDS011;7477;45.222;5.688;2023-05-18T12:45:34;11.43;;;6.40;;
14770;SDS011;7477;45.222;5.688;2023-05-18T12:48:57;10.35;;;6.22;;
14770;SDS011;7477;45.222;5.688;2023-05-18T12:52:19;10.25;;;7.57;;
14770;SDS011;7477;45.222;5.688;2023-05-18T12:55:39;9.75;;;6.18;;
14770;SDS011;7477;45.222;5.688;2023-05-18T12:58:59;7.45;;;6.18;;
14770;SDS011;7477;45.222;5.688;2023-05-18T13:02:25;10.65;;;6.22;;
14770;SDS011;7477;45.222;5.688;2023-05-18T13:06:02;12.18;;;6.35;;
14770;SDS011;7477;45.222;5.688;2023-05-18T13:09:22;8.23;;;5.93;;
14770;SDS011;7477;45.222;5.688;2023-05-18T13:12:49;9.18;;;6.50;;
14770;SDS011;7477;45.222;5.688;2023-05-18T13:16:16;9.40;;;6.82;;
14770;SDS011;7477;45.222;5.688;2023-05-18T13:19:35;10.55;;;6.57;;
14770;SDS011;7477;45.222;5.688;2023-05-18T13:22:54;10.40;;;6.45;;
14770;SDS011;7477;45.222;5.688;2023-05-18T13:26:19;8.77;;;6.38;;
14770;SDS011;7477;45.222;5.688;2023-05-18T13:29:42;8.98;;;6.25;;
14770;SDS011;7477;45.222;5.688;2023-05-18T13:33:01;9.45;;;5.82;;
14770;SDS011;7477;45.222;5.688;2023-05-18T13:36:21;13.93;;;7.22;;
14770;SDS011;7477;45.222;5.688;2023-05-18T13:39:41;8.60;;;6.18;;
14770;SDS011;7477;45.222;5.688;2023-05-18T13:43:00;9.18;;;6.07;;
14770;SDS011;7477;45.222;5.688;2023-05-18T13:46:19;13.50;;;6.93;;
14770;SDS011;7477;45.222;5.688;2023-05-18T13:49:39;12.32;;;6.55;;
14770;SDS011;7477;45.222;5.688;2023-05-18T13:52:58;12.30;;;5.90;;
14770;SDS011;7477;45.222;5.688;2023-05-18T13:56:17;8.40;;;6.20;;
14770;SDS011;7477;45.222;5.688;2023-05-18T13:59:37;12.50;;;7.28;;
14770;SDS011;7477;45.222;5.688;2023-05-18T14:02:56;22.30;;;11.27;;
14770;SDS011;7477;45.222;5.688;2023-05-18T14:06:15;9.05;;;7.38;;
14770;SDS011;7477;45.222;5.688;2023-05-18T14:09:34;9.88;;;6.55;;
14770;SDS011;7477;45.222;5.688;2023-05-18T14:12:53;10.55;;;6.45;;
14770;SDS011;7477;45.222;5.688;2023-05-18T14:16:12;10.02;;;6.00;;
14770;SDS011;7477;45.222;5.688;2023-05-18T14:19:31;11.13;;;6.95;;
14770;SDS011;7477;45.222;5.688;2023-05-18T14:22:50;9.52;;;6.80;;
14770;SDS011;7477;45.222;5.688;2023-05-18T14:26:09;7.30;;;5.78;;
14770;SDS011;7477;45.222;5.688;2023-05-18T14:29:28;9.52;;;5.57;;
14770;SDS011;7477;45.222;5.688;2023-05-18T14:32:48;10.48;;;5.85;;
14770;SDS011;7477;45.222;5.688;2023-05-18T14:36:07;7.63;;;5.45;;
14770;SDS011;7477;45.222;5.688;2023-05-18T14:39:27;7.50;;;5.82;;
14770;SDS011;7477;45.222;5.688;2023-05-18T14:42:46;9.77;;;5.88;;
14770;SDS011;7477;45.222;5.688;2023-05-18T14:46:05;8.10;;;5.50;;
14770;SDS011;7477;45.222;5.688;2023-05-18T14:49:24;14.93;;;5.90;;
14770;SDS011;7477;45.222;5.688;2023-05-18T14:52:43;9.32;;;6.03;;
14770;SDS011;7477;45.222;5.688;2023-05-18T14:56:02;8.07;;;4.75;;
14770;SDS011;7477;45.222;5.688;2023-05-18T14:59:26;7.05;;;5.35;;
14770;SDS011;7477;45.222;5.688;2023-05-18T15:02:45;8.35;;;5.13;;
14770;SDS011;7477;45.222;5.688;2023-05-18T15:06:04;11.50;;;5.20;;
14770;SDS011;7477;45.222;5.688;2023-05-18T15:09:24;9.57;;;5.60;;
14770;SDS011;7477;45.222;5.688;2023-05-18T15:12:43;9.13;;;5.45;;
14770;SDS011;7477;45.222;5.688;2023-05-18T15:16:02;7.15;;;5.38;;
14770;SDS011;7477;45.222;5.688;2023-05-18T15:19:22;8.45;;;5.07;;
14770;SDS011;7477;45.222;5.688;2023-05-18T15:22:41;7.47;;;5.13;;
14770;SDS011;7477;45.222;5.688;2023-05-18T15:26:01;8.52;;;5.80;;
14770;SDS011;7477;45.222;5.688;2023-05-18T15:29:21;10.25;;;6.68;;
14770;SDS011;7477;45.222;5.688;2023-05-18T15:32:41;9.48;;;4.97;;
14770;SDS011;7477;45.222;5.688;2023-05-18T15:36:00;12.43;;;6.35;;
14770;SDS011;7477;45.222;5.688;2023-05-18T15:39:20;9.82;;;5.38;;
14770;SDS011;7477;45.222;5.688;2023-05-18T15:42:39;8.00;;;5.65;;
14770;SDS011;7477;45.222;5.688;2023-05-18T15:45:58;8.10;;;5.85;;
14770;SDS011;7477;45.222;5.688;2023-05-18T15:49:18;12.43;;;7.45;;
14770;SDS011;7477;45.222;5.688;2023-05-18T15:52:39;11.63;;;7.65;;
14770;SDS011;7477;45.222;5.688;2023-05-18T15:55:59;8.18;;;5.22;;
14770;SDS011;7477;45.222;5.688;2023-05-18T15:59:18;9.63;;;5.80;;
14770;SDS011;7477;45.222;5.688;2023-05-18T16:02:37;11.48;;;5.88;;
14770;SDS011;7477;45.222;5.688;2023-05-18T16:05:56;11.23;;;6.03;;
14770;SDS011;7477;45.222;5.688;2023-05-18T16:09:15;8.88;;;5.88;;
14770;SDS011;7477;45.222;5.688;2023-05-18T16:12:35;11.27;;;5.93;;
14770;SDS011;7477;45.222;5.688;2023-05-18T16:15:54;9.80;;;5.72;;
14770;SDS011;7477;45.222;5.688;2023-05-18T16:19:14;6.88;;;4.90;;
14770;SDS011;7477;45.222;5.688;2023-05-18T16:22:33;10.57;;;5.43;;
14770;SDS011;7477;45.222;5.688;2023-05-18T16:25:52;7.82;;;5.15;;
14770;SDS011;7477;45.222;5.688;2023-05-18T16:29:11;11.80;;;7.40;;
14770;SDS011;7477;45.222;5.688;2023-05-18T16:32:30;13.00;;;7.72;;
14770;SDS011;7477;45.222;5.688;2023-05-18T16:35:50;8.52;;;5.70;;
14770;SDS011;7477;45.222;5.688;2023-05-18T16:39:10;8.02;;;5.78;;
14770;SDS011;7477;45.222;5.688;2023-05-18T16:42:29;6.13;;;5.05;;
14770;SDS011;7477;45.222;5.688;2023-05-18T16:45:49;8.18;;;5.32;;
14770;SDS011;7477;45.222;5.688;2023-05-18T16:49:08;6.53;;;5.00;;
14770;SDS011;7477;45.222;5.688;2023-05-18T16:52:28;6.53;;;4.50;;
14770;SDS011;7477;45.222;5.688;2023-05-18T16:55:48;8.57;;;5.57;;
14770;SDS011;7477;45.222;5.688;2023-05-18T16:59:07;9.52;;;5.30;;
14770;SDS011;7477;45.222;5.688;2023-05-18T17:02:27;7.15;;;5.22;;
14770;SDS011;7477;45.222;5.688;2023-05-18T17:05:47;6.65;;;5.47;;
14770;SDS011;7477;45.222;5.688;2023-05-18T17:09:06;9.75;;;5.18;;
14770;SDS011;7477;45.222;5.688;2023-05-18T17:12:25;7.72;;;5.13;;
14770;SDS011;7477;45.222;5.688;2023-05-18T17:15:46;10.75;;;5.15;;
14770;SDS011;7477;45.222;5.688;2023-05-18T17:19:08;11.35;;;6.57;;
14770;SDS011;7477;45.222;5.688;2023-05-18T17:22:27;7.22;;;5.03;;
14770;SDS011;7477;45.222;5.688;2023-05-18T17:25:47;9.13;;;5.50;;
14770;SDS011;7477;45.222;5.688;2023-05-18T17:29:06;5.78;;;4.70;;
14770;SDS011;7477;45.222;5.688;2023-05-18T17:32:25;7.35;;;5.60;;
14770;SDS011;7477;45.222;5.688;2023-05-18T17:35:44;8.27;;;6.20;;
14770;SDS011;7477;45.222;5.688;2023-05-18T17:39:04;10.73;;;5.13;;
14770;SDS011;7477;45.222;5.688;2023-05-18T17:42:23;7.70;;;5.20;;
14770;SDS011;7477;45.222;5.688;2023-05-18T17:45:42;6.57;;;4.50;;
14770;SDS011;7477;45.222;5.688;2023-05-18T17:49:01;9.07;;;5.20;;
14770;SDS011;7477;45.222;5.688;2023-05-18T17:52:21;7.13;;;4.78;;
14770;SDS011;7477;45.222;5.688;2023-05-18T17:55:40;8.10;;;5.45;;
14770;SDS011;7477;45.222;5.688;2023-05-18T17:59:00;8.90;;;5.13;;
14770;SDS011;7477;45.222;5.688;2023-05-18T18:02:19;7.05;;;5.57;;
14770;SDS011;7477;45.222;5.688;2023-05-18T18:05:38;8.32;;;6.03;;
14770;SDS011;7477;45.222;5.688;2023-05-18T18:08:57;8.93;;;5.43;;
14770;SDS011;7477;45.222;5.688;2023-05-18T18:12:17;9.65;;;5.47;;
14770;SDS011;7477;45.222;5.688;2023-05-18T18:15:37;6.57;;;4.63;;
14770;SDS011;7477;45.222;5.688;2023-05-18T18:18:56;10.25;;;4.95;;
14770;SDS011;7477;45.222;5.688;2023-05-18T18:22:16;7.32;;;5.13;;
14770;SDS011;7477;45.222;5.688;2023-05-18T18:25:36;7.25;;;4.38;;
14770;SDS011;7477;45.222;5.688;2023-05-18T18:28:55;8.38;;;4.70;;
14770;SDS011;7477;45.222;5.688;2023-05-18T18:32:15;7.45;;;4.22;;
14770;SDS011;7477;45.222;5.688;2023-05-18T18:35:34;7.72;;;4.43;;
14770;SDS011;7477;45.222;5.688;2023-05-18T18:38:54;6.93;;;4.80;;
14770;SDS011;7477;45.222;5.688;2023-05-18T18:42:14;10.93;;;5.72;;
14770;SDS011;7477;45.222;5.688;2023-05-18T18:45:33;7.72;;;5.28;;
14770;SDS011;7477;45.222;5.688;2023-05-18T18:48:53;9.52;;;5.30;;
14770;SDS011;7477;45.222;5.688;2023-05-18T18:52:12;8.15;;;4.82;;
14770;SDS011;7477;45.222;5.688;2023-05-18T18:55:32;7.97;;;5.40;;
14770;SDS011;7477;45.222;5.688;2023-05-18T18:58:51;9.43;;;4.90;;
14770;SDS011;7477;45.222;5.688;2023-05-18T19:02:10;12.55;;;5.40;;
14770;SDS011;7477;45.222;5.688;2023-05-18T19:05:29;8.05;;;4.72;;
14770;SDS011;7477;45.222;5.688;2023-05-18T19:08:49;7.78;;;4.53;;
14770;SDS011;7477;45.222;5.688;2023-05-18T19:12:11;13.15;;;5.22;;
14770;SDS011;7477;45.222;5.688;2023-05-18T19:15:31;6.25;;;4.47;;
14770;SDS011;7477;45.222;5.688;2023-05-18T19:18:54;6.68;;;5.30;;
14770;SDS011;7477;45.222;5.688;2023-05-18T19:22:13;7.72;;;6.32;;
14770;SDS011;7477;45.222;5.688;2023-05-18T19:25:33;7.78;;;6.97;;
14770;SDS011;7477;45.222;5.688;2023-05-18T19:28:53;6.15;;;5.22;;
14770;SDS011;7477;45.222;5.688;2023-05-18T19:32:12;10.52;;;5.85;;
14770;SDS011;7477;45.222;5.688;2023-05-18T19:35:31;11.63;;;8.93;;
14770;SDS011;7477;45.222;5.688;2023-05-18T19:38:51;14.95;;;10.70;;
14770;SDS011;7477;45.222;5.688;2023-05-18T19:42:10;9.88;;;5.88;;
14770;SDS011;7477;45.222;5.688;2023-05-18T19:45:29;7.50;;;4.43;;
14770;SDS011;7477;45.222;5.688;2023-05-18T19:48:50;9.77;;;5.97;;
14770;SDS011;7477;45.222;5.688;2023-05-18T19:52:09;12.02;;;7.25;;
14770;SDS011;7477;45.222;5.688;2023-05-18T19:55:29;6.93;;;6.05;;
14770;SDS011;7477;45.222;5.688;2023-05-18T19:58:48;10.50;;;8.27;;
14770;SDS011;7477;45.222;5.688;2023-05-18T20:02:08;9.05;;;5.50;;
14770;SDS011;7477;45.222;5.688;2023-05-18T20:05:28;11.80;;;5.68;;
14770;SDS011;7477;45.222;5.688;2023-05-18T20:08:47;9.55;;;6.03;;
14770;SDS011;7477;45.222;5.688;2023-05-18T20:12:06;7.72;;;5.47;;
14770;SDS011;7477;45.222;5.688;2023-05-18T20:15:26;6.43;;;5.35;;
14770;SDS011;7477;45.222;5.688;2023-05-18T20:18:47;9.57;;;6.53;;
14770;SDS011;7477;45.222;5.688;2023-05-18T20:22:06;7.18;;;5.93;;
14770;SDS011;7477;45.222;5.688;2023-05-18T20:25:28;9.20;;;6.45;;
14770;SDS011;7477;45.222;5.688;2023-05-18T20:28:52;11.93;;;6.85;;
14770;SDS011;7477;45.222;5.688;2023-05-18T20:32:11;6.63;;;5.88;;
14770;SDS011;7477;45.222;5.688;2023-05-18T20:35:31;11.90;;;5.95;;
14770;SDS011;7477;45.222;5.688;2023-05-18T20:38:51;11.75;;;6.05;;